DLH7MM EDDF-EDDM
Flight info
| Callsign | DLH7MM |
|---|---|
| Flight time | 0h 37m |
| Altitude | 19000 |
| Route | CINDY8S/18 CINDY Z74 HAREM T104 ROKIL ROKIL1B |
| Aircraft | A319/M-SADE2E3FGIJ1LORWXYZ/HB1 |
Departure
| Time | 2026-05-06 19:31 |
|---|---|
| Airport | Frankfurt Main Airport (EDDF) |
Arrival
| Time | 2026-05-06 20:08 |
|---|---|
| Airport | Munich Airport (EDDM) |
| Time | Latitude | Longitude | Altitude | Speed | Heading |
|---|---|---|---|---|---|
| 2026-05-06 18:43 | 50.04853 | 8.58900 | 365 ft | 0 kts | 340° |
| 2026-05-06 19:10 | 50.04842 | 8.58906 | 368 ft | 4 kts | 340° |
| 2026-05-06 19:10 | 50.04817 | 8.58920 | 368 ft | 4 kts | 340° |
| 2026-05-06 19:11 | 50.04792 | 8.58935 | 367 ft | 4 kts | 340° |
| 2026-05-06 19:11 | 50.04778 | 8.58943 | 369 ft | 0 kts | 340° |
| 2026-05-06 19:19 | 50.04779 | 8.58939 | 370 ft | 0 kts | 319° |
| 2026-05-06 19:19 | 50.04777 | 8.58933 | 370 ft | 0 kts | 276° |
| 2026-05-06 19:19 | 50.04772 | 8.58923 | 368 ft | 4 kts | 239° |
| 2026-05-06 19:20 | 50.04749 | 8.58861 | 370 ft | 8 kts | 246° |
| 2026-05-06 19:20 | 50.04721 | 8.58751 | 374 ft | 14 kts | 247° |
| 2026-05-06 19:20 | 50.04681 | 8.58602 | 370 ft | 16 kts | 250° |
| 2026-05-06 19:20 | 50.04642 | 8.58438 | 371 ft | 17 kts | 250° |
| 2026-05-06 19:21 | 50.04600 | 8.58260 | 370 ft | 19 kts | 249° |
| 2026-05-06 19:21 | 50.04563 | 8.58087 | 363 ft | 12 kts | 269° |
| 2026-05-06 19:21 | 50.04638 | 8.58000 | 361 ft | 16 kts | 340° |
| 2026-05-06 19:21 | 50.04705 | 8.57890 | 358 ft | 16 kts | 254° |
| 2026-05-06 19:22 | 50.04665 | 8.57719 | 361 ft | 19 kts | 250° |
| 2026-05-06 19:22 | 50.04613 | 8.57503 | 364 ft | 22 kts | 249° |
| 2026-05-06 19:22 | 50.04559 | 8.57278 | 357 ft | 15 kts | 250° |
| 2026-05-06 19:22 | 50.04529 | 8.57150 | 360 ft | 13 kts | 249° |
| 2026-05-06 19:23 | 50.04506 | 8.57057 | 360 ft | 0 kts | 250° |
| 2026-05-06 19:23 | 50.04502 | 8.57037 | 357 ft | 6 kts | 250° |
| 2026-05-06 19:23 | 50.04480 | 8.56944 | 362 ft | 13 kts | 249° |
| 2026-05-06 19:24 | 50.04441 | 8.56783 | 363 ft | 18 kts | 249° |
| 2026-05-06 19:24 | 50.04391 | 8.56573 | 360 ft | 24 kts | 249° |
| 2026-05-06 19:24 | 50.04329 | 8.56313 | 356 ft | 26 kts | 250° |
| 2026-05-06 19:24 | 50.04264 | 8.56042 | 358 ft | 27 kts | 249° |
| 2026-05-06 19:25 | 50.04197 | 8.55762 | 358 ft | 28 kts | 250° |
| 2026-05-06 19:25 | 50.04128 | 8.55476 | 352 ft | 28 kts | 250° |
| 2026-05-06 19:25 | 50.04062 | 8.55198 | 356 ft | 27 kts | 249° |
| 2026-05-06 19:25 | 50.03996 | 8.54922 | 354 ft | 28 kts | 250° |
| 2026-05-06 19:26 | 50.03929 | 8.54644 | 354 ft | 25 kts | 249° |
| 2026-05-06 19:26 | 50.03880 | 8.54435 | 352 ft | 19 kts | 249° |
| 2026-05-06 19:26 | 50.03811 | 8.54257 | 345 ft | 20 kts | 240° |
| 2026-05-06 19:26 | 50.03757 | 8.54045 | 347 ft | 22 kts | 249° |
| 2026-05-06 19:27 | 50.03702 | 8.53817 | 322 ft | 23 kts | 249° |
| 2026-05-06 19:27 | 50.03643 | 8.53576 | 346 ft | 25 kts | 248° |
| 2026-05-06 19:27 | 50.03580 | 8.53320 | 338 ft | 26 kts | 250° |
| 2026-05-06 19:27 | 50.03517 | 8.53052 | 335 ft | 26 kts | 250° |
| 2026-05-06 19:28 | 50.03477 | 8.52892 | 334 ft | 13 kts | 246° |
| 2026-05-06 19:28 | 50.03447 | 8.52783 | 333 ft | 9 kts | 247° |
| 2026-05-06 19:28 | 50.03419 | 8.52679 | 334 ft | 11 kts | 249° |
| 2026-05-06 19:28 | 50.03384 | 8.52595 | 334 ft | 9 kts | 199° |
| 2026-05-06 19:29 | 50.03356 | 8.52594 | 336 ft | 0 kts | 180° |
| 2026-05-06 19:30 | 50.03353 | 8.52594 | 336 ft | 2 kts | 180° |
| 2026-05-06 19:30 | 50.03247 | 8.52594 | 334 ft | 49 kts | 179° |
| 2026-05-06 19:30 | 50.02613 | 8.52599 | 336 ft | 130 kts | 180° |
| 2026-05-06 19:30 | 50.01561 | 8.52612 | 720 ft | 156 kts | 181° |
| 2026-05-06 19:31 | 50.00477 | 8.52613 | 1554 ft | 156 kts | 183° |
| 2026-05-06 19:31 | 49.99307 | 8.52611 | 2071 ft | 180 kts | 182° |
| 2026-05-06 19:31 | 49.96575 | 8.53483 | 3016 ft | 232 kts | 143° |
| 2026-05-06 19:32 | 49.95584 | 8.55558 | 3799 ft | 244 kts | 119° |
| 2026-05-06 19:32 | 49.94777 | 8.57870 | 4971 ft | 244 kts | 121° |
| 2026-05-06 19:32 | 49.94129 | 8.60331 | 5977 ft | 253 kts | 104° |
| 2026-05-06 19:32 | 49.93925 | 8.63182 | 6564 ft | 278 kts | 95° |
| 2026-05-06 19:33 | 49.93738 | 8.66236 | 7383 ft | 289 kts | 103° |
| 2026-05-06 19:33 | 49.93070 | 8.69198 | 7857 ft | 293 kts | 122° |
| 2026-05-06 19:33 | 49.91778 | 8.71639 | 8777 ft | 292 kts | 142° |
| 2026-05-06 19:33 | 49.90151 | 8.73507 | 9879 ft | 292 kts | 147° |
| 2026-05-06 19:34 | 49.88586 | 8.75639 | 10521 ft | 313 kts | 134° |
| 2026-05-06 19:34 | 49.87296 | 8.78485 | 10757 ft | 329 kts | 121° |
| 2026-05-06 19:34 | 49.86195 | 8.81610 | 10822 ft | 331 kts | 120° |
| 2026-05-06 19:34 | 49.85084 | 8.84741 | 10851 ft | 333 kts | 120° |
| 2026-05-06 19:35 | 49.83943 | 8.87922 | 11538 ft | 339 kts | 121° |
| 2026-05-06 19:35 | 49.82792 | 8.91102 | 12650 ft | 338 kts | 121° |
| 2026-05-06 19:35 | 49.81635 | 8.94284 | 13641 ft | 341 kts | 121° |
| 2026-05-06 19:35 | 49.80467 | 8.97495 | 14477 ft | 344 kts | 121° |
| 2026-05-06 19:36 | 49.79285 | 9.00736 | 15291 ft | 347 kts | 121° |
| 2026-05-06 19:36 | 49.78089 | 9.04009 | 16093 ft | 351 kts | 121° |
| 2026-05-06 19:36 | 49.76696 | 9.07122 | 16861 ft | 354 kts | 129° |
| 2026-05-06 19:36 | 49.75192 | 9.10154 | 17701 ft | 356 kts | 129° |
| 2026-05-06 19:37 | 49.73661 | 9.13194 | 18435 ft | 360 kts | 129° |
| 2026-05-06 19:37 | 49.72115 | 9.16249 | 18737 ft | 361 kts | 130° |
| 2026-05-06 19:37 | 49.70570 | 9.19297 | 18809 ft | 356 kts | 129° |
| 2026-05-06 19:37 | 49.69085 | 9.22227 | 18837 ft | 338 kts | 130° |
| 2026-05-06 19:38 | 49.67660 | 9.25044 | 18829 ft | 330 kts | 129° |
| 2026-05-06 19:38 | 49.66254 | 9.27824 | 18830 ft | 328 kts | 129° |
| 2026-05-06 19:38 | 49.64852 | 9.30594 | 18832 ft | 327 kts | 130° |
| 2026-05-06 19:38 | 49.63452 | 9.33356 | 18828 ft | 327 kts | 130° |
| 2026-05-06 19:39 | 49.62050 | 9.36122 | 18833 ft | 327 kts | 130° |
| 2026-05-06 19:39 | 49.60650 | 9.38884 | 18820 ft | 327 kts | 130° |
| 2026-05-06 19:39 | 49.59253 | 9.41642 | 18822 ft | 327 kts | 130° |
| 2026-05-06 19:39 | 49.57850 | 9.44403 | 18832 ft | 326 kts | 130° |
| 2026-05-06 19:40 | 49.56454 | 9.47148 | 18821 ft | 325 kts | 130° |
| 2026-05-06 19:40 | 49.55061 | 9.49888 | 18828 ft | 325 kts | 130° |
| 2026-05-06 19:40 | 49.53682 | 9.52588 | 18832 ft | 325 kts | 130° |
| 2026-05-06 19:40 | 49.52285 | 9.55316 | 18832 ft | 324 kts | 130° |
| 2026-05-06 19:41 | 49.50890 | 9.58041 | 18835 ft | 324 kts | 130° |
| 2026-05-06 19:41 | 49.49494 | 9.60767 | 18839 ft | 324 kts | 130° |
| 2026-05-06 19:41 | 49.48100 | 9.63501 | 18842 ft | 324 kts | 130° |
| 2026-05-06 19:41 | 49.46707 | 9.66229 | 18845 ft | 324 kts | 130° |
| 2026-05-06 19:42 | 49.45314 | 9.68953 | 18848 ft | 324 kts | 130° |
| 2026-05-06 19:42 | 49.43917 | 9.71674 | 18848 ft | 324 kts | 130° |
| 2026-05-06 19:42 | 49.42521 | 9.74388 | 18850 ft | 324 kts | 130° |
| 2026-05-06 19:42 | 49.41120 | 9.77104 | 18852 ft | 324 kts | 130° |
| 2026-05-06 19:43 | 49.39699 | 9.79852 | 18848 ft | 341 kts | 130° |
| 2026-05-06 19:43 | 49.38166 | 9.82796 | 18924 ft | 365 kts | 131° |
| 2026-05-06 19:43 | 49.36488 | 9.85864 | 19039 ft | 385 kts | 133° |
| 2026-05-06 19:43 | 49.34677 | 9.89017 | 19165 ft | 403 kts | 134° |
| 2026-05-06 19:44 | 49.32767 | 9.92259 | 19372 ft | 415 kts | 135° |
| 2026-05-06 19:44 | 49.30812 | 9.95555 | 19847 ft | 419 kts | 134° |
| 2026-05-06 19:44 | 49.28850 | 9.98875 | 20394 ft | 421 kts | 134° |
| 2026-05-06 19:44 | 49.26892 | 10.02212 | 20761 ft | 422 kts | 134° |
| 2026-05-06 19:45 | 49.24935 | 10.05561 | 20835 ft | 421 kts | 134° |
| 2026-05-06 19:45 | 49.22987 | 10.08902 | 20839 ft | 421 kts | 134° |
| 2026-05-06 19:45 | 49.21039 | 10.12239 | 20851 ft | 421 kts | 134° |
| 2026-05-06 19:45 | 49.19093 | 10.15574 | 20861 ft | 421 kts | 134° |
| 2026-05-06 19:46 | 49.17145 | 10.18910 | 20861 ft | 421 kts | 134° |
| 2026-05-06 19:46 | 49.15198 | 10.22245 | 20844 ft | 420 kts | 135° |
| 2026-05-06 19:46 | 49.13245 | 10.25564 | 20864 ft | 419 kts | 135° |
| 2026-05-06 19:46 | 49.11263 | 10.28824 | 20863 ft | 419 kts | 136° |
| 2026-05-06 19:47 | 49.09259 | 10.32043 | 20879 ft | 418 kts | 136° |
| 2026-05-06 19:47 | 49.07242 | 10.35241 | 20877 ft | 418 kts | 137° |
| 2026-05-06 19:47 | 49.05224 | 10.38433 | 20879 ft | 418 kts | 137° |
| 2026-05-06 19:47 | 49.03208 | 10.41629 | 20875 ft | 418 kts | 137° |
| 2026-05-06 19:48 | 49.01198 | 10.44829 | 20885 ft | 418 kts | 136° |
| 2026-05-06 19:48 | 48.99195 | 10.48029 | 20883 ft | 412 kts | 136° |
| 2026-05-06 19:48 | 48.97268 | 10.51118 | 20652 ft | 394 kts | 136° |
| 2026-05-06 19:48 | 48.95410 | 10.54095 | 20406 ft | 382 kts | 137° |
| 2026-05-06 19:49 | 48.93607 | 10.56976 | 20156 ft | 371 kts | 137° |
| 2026-05-06 19:49 | 48.91854 | 10.59775 | 19891 ft | 360 kts | 137° |
| 2026-05-06 19:49 | 48.90152 | 10.62490 | 19643 ft | 350 kts | 136° |
| 2026-05-06 19:49 | 48.88745 | 10.65463 | 19401 ft | 346 kts | 121° |
| 2026-05-06 19:50 | 48.87746 | 10.68750 | 19161 ft | 338 kts | 118° |
| 2026-05-06 19:50 | 48.86789 | 10.71970 | 18922 ft | 331 kts | 118° |
| 2026-05-06 19:50 | 48.85853 | 10.75127 | 18676 ft | 326 kts | 118° |
| 2026-05-06 19:50 | 48.84922 | 10.78262 | 18440 ft | 325 kts | 118° |
| 2026-05-06 19:51 | 48.83994 | 10.81383 | 18202 ft | 324 kts | 118° |
| 2026-05-06 19:51 | 48.83066 | 10.84499 | 17929 ft | 324 kts | 118° |
| 2026-05-06 19:51 | 48.82152 | 10.87563 | 17662 ft | 323 kts | 118° |
| 2026-05-06 19:51 | 48.81225 | 10.90659 | 17381 ft | 322 kts | 118° |
| 2026-05-06 19:52 | 48.80297 | 10.93753 | 17118 ft | 322 kts | 118° |
| 2026-05-06 19:52 | 48.79372 | 10.96831 | 16908 ft | 321 kts | 118° |
| 2026-05-06 19:52 | 48.78448 | 10.99905 | 16860 ft | 320 kts | 118° |
| 2026-05-06 19:52 | 48.77526 | 11.02971 | 16855 ft | 320 kts | 118° |
| 2026-05-06 19:53 | 48.76604 | 11.06036 | 16591 ft | 318 kts | 118° |
| 2026-05-06 19:53 | 48.75690 | 11.09073 | 16328 ft | 317 kts | 118° |
| 2026-05-06 19:53 | 48.74774 | 11.12106 | 16062 ft | 316 kts | 119° |
| 2026-05-06 19:53 | 48.73859 | 11.15132 | 15815 ft | 316 kts | 119° |
| 2026-05-06 19:54 | 48.72943 | 11.18154 | 15556 ft | 316 kts | 119° |
| 2026-05-06 19:54 | 48.72025 | 11.21179 | 15311 ft | 316 kts | 119° |
| 2026-05-06 19:54 | 48.71107 | 11.24196 | 15061 ft | 318 kts | 119° |
| 2026-05-06 19:54 | 48.70118 | 11.27410 | 14819 ft | 351 kts | 119° |
| 2026-05-06 19:55 | 48.69073 | 11.30819 | 14568 ft | 361 kts | 118° |
| 2026-05-06 19:55 | 48.68018 | 11.34280 | 14326 ft | 363 kts | 118° |
| 2026-05-06 19:55 | 48.66966 | 11.37755 | 14076 ft | 364 kts | 118° |
| 2026-05-06 19:55 | 48.65910 | 11.41237 | 13838 ft | 365 kts | 118° |
| 2026-05-06 19:56 | 48.64849 | 11.44726 | 13593 ft | 365 kts | 118° |
| 2026-05-06 19:56 | 48.63786 | 11.48213 | 13327 ft | 365 kts | 118° |
| 2026-05-06 19:56 | 48.62724 | 11.51689 | 13059 ft | 364 kts | 118° |
| 2026-05-06 19:56 | 48.61664 | 11.55148 | 12793 ft | 363 kts | 119° |
| 2026-05-06 19:57 | 48.60601 | 11.58600 | 12427 ft | 361 kts | 119° |
| 2026-05-06 19:57 | 48.59559 | 11.61981 | 11991 ft | 359 kts | 119° |
| 2026-05-06 19:57 | 48.58505 | 11.65393 | 11558 ft | 358 kts | 119° |
| 2026-05-06 19:57 | 48.57457 | 11.68785 | 11130 ft | 356 kts | 119° |
| 2026-05-06 19:58 | 48.56412 | 11.72165 | 10684 ft | 354 kts | 119° |
| 2026-05-06 19:58 | 48.55372 | 11.75526 | 10255 ft | 352 kts | 119° |
| 2026-05-06 19:58 | 48.54338 | 11.78863 | 9812 ft | 350 kts | 119° |
| 2026-05-06 19:58 | 48.53308 | 11.82174 | 9330 ft | 348 kts | 119° |
| 2026-05-06 19:59 | 48.52294 | 11.85439 | 8857 ft | 338 kts | 119° |
| 2026-05-06 19:59 | 48.51311 | 11.88609 | 8390 ft | 329 kts | 119° |
| 2026-05-06 19:59 | 48.50506 | 11.91786 | 7947 ft | 322 kts | 107° |
| 2026-05-06 19:59 | 48.50013 | 11.95046 | 7531 ft | 315 kts | 104° |
| 2026-05-06 20:00 | 48.49549 | 11.98220 | 7132 ft | 306 kts | 104° |
| 2026-05-06 20:00 | 48.49091 | 12.01309 | 6773 ft | 297 kts | 104° |
| 2026-05-06 20:00 | 48.48648 | 12.04291 | 6529 ft | 287 kts | 104° |
| 2026-05-06 20:00 | 48.48219 | 12.07188 | 6234 ft | 280 kts | 104° |
| 2026-05-06 20:01 | 48.47787 | 12.10035 | 5923 ft | 277 kts | 104° |
| 2026-05-06 20:01 | 48.47275 | 12.12822 | 5608 ft | 274 kts | 117° |
| 2026-05-06 20:01 | 48.46139 | 12.15026 | 5337 ft | 264 kts | 148° |
| 2026-05-06 20:01 | 48.44517 | 12.16130 | 5096 ft | 254 kts | 172° |
| 2026-05-06 20:02 | 48.42784 | 12.16643 | 4980 ft | 250 kts | 187° |
| 2026-05-06 20:02 | 48.41172 | 12.16074 | 4818 ft | 232 kts | 214° |
| 2026-05-06 20:02 | 48.40310 | 12.15212 | 4672 ft | 219 kts | 227° |
| 2026-05-06 20:02 | 48.39371 | 12.13503 | 4379 ft | 208 kts | 246° |
| 2026-05-06 20:03 | 48.38894 | 12.11502 | 4080 ft | 201 kts | 263° |
| 2026-05-06 20:03 | 48.38739 | 12.09469 | 3993 ft | 190 kts | 266° |
| 2026-05-06 20:03 | 48.38596 | 12.07564 | 3994 ft | 178 kts | 266° |
| 2026-05-06 20:03 | 48.38461 | 12.05745 | 4025 ft | 173 kts | 266° |
| 2026-05-06 20:04 | 48.38328 | 12.03953 | 4006 ft | 171 kts | 266° |
| 2026-05-06 20:04 | 48.38201 | 12.02262 | 3988 ft | 153 kts | 266° |
| 2026-05-06 20:04 | 48.38089 | 12.00761 | 3891 ft | 136 kts | 266° |
| 2026-05-06 20:04 | 48.37988 | 11.99408 | 3754 ft | 125 kts | 266° |
| 2026-05-06 20:05 | 48.37894 | 11.98142 | 3609 ft | 120 kts | 266° |
| 2026-05-06 20:05 | 48.37802 | 11.96908 | 3461 ft | 118 kts | 266° |
| 2026-05-06 20:05 | 48.37711 | 11.95689 | 3315 ft | 116 kts | 266° |
| 2026-05-06 20:05 | 48.37621 | 11.94483 | 3163 ft | 116 kts | 265° |
| 2026-05-06 20:06 | 48.37530 | 11.93271 | 3000 ft | 118 kts | 265° |
| 2026-05-06 20:06 | 48.37441 | 11.92028 | 2843 ft | 121 kts | 265° |
| 2026-05-06 20:06 | 48.37351 | 11.90773 | 2681 ft | 120 kts | 264° |
| 2026-05-06 20:06 | 48.37260 | 11.89551 | 2514 ft | 118 kts | 264° |
| 2026-05-06 20:07 | 48.37167 | 11.88329 | 2335 ft | 117 kts | 263° |
| 2026-05-06 20:07 | 48.37074 | 11.87128 | 2175 ft | 114 kts | 262° |
| 2026-05-06 20:07 | 48.36983 | 11.85965 | 2021 ft | 112 kts | 261° |
| 2026-05-06 20:07 | 48.36893 | 11.84783 | 1876 ft | 117 kts | 261° |
| 2026-05-06 20:08 | 48.36799 | 11.83547 | 1711 ft | 120 kts | 262° |
| 2026-05-06 20:08 | 48.36703 | 11.82311 | 1559 ft | 120 kts | 262° |
| 2026-05-06 20:08 | 48.36608 | 11.81098 | 1482 ft | 106 kts | 263° |
| 2026-05-06 20:08 | 48.36552 | 11.80339 | 1482 ft | 45 kts | 263° |
| 2026-05-06 20:09 | 48.36519 | 11.79943 | 1482 ft | 31 kts | 259° |
| 2026-05-06 20:09 | 48.36438 | 11.79677 | 1483 ft | 27 kts | 234° |
| 2026-05-06 20:09 | 48.36325 | 11.79450 | 1481 ft | 27 kts | 234° |
| 2026-05-06 20:09 | 48.36239 | 11.79306 | 1485 ft | 14 kts | 202° |
| 2026-05-06 20:10 | 48.36135 | 11.79307 | 1485 ft | 16 kts | 174° |
| 2026-05-06 20:10 | 48.36051 | 11.79323 | 1483 ft | 7 kts | 173° |
| 2026-05-06 20:10 | 48.35995 | 11.79332 | 1483 ft | 10 kts | 173° |
| 2026-05-06 20:10 | 48.35921 | 11.79357 | 1483 ft | 12 kts | 150° |
| 2026-05-06 20:11 | 48.35836 | 11.79388 | 1485 ft | 13 kts | 174° |
| 2026-05-06 20:11 | 48.35738 | 11.79405 | 1485 ft | 14 kts | 173° |
| 2026-05-06 20:11 | 48.35676 | 11.79415 | 1485 ft | 8 kts | 173° |
| 2026-05-06 20:11 | 48.35650 | 11.79367 | 1485 ft | 8 kts | 265° |
| 2026-05-06 20:12 | 48.35644 | 11.79280 | 1475 ft | 8 kts | 263° |
| 2026-05-06 20:12 | 48.35643 | 11.79266 | 1480 ft | 0 kts | 263° |